Time,TemperatureF,DewpointF,PressureIn,WindDirection,WindDirectionDegrees,WindSpeedMPH,WindSpeedGustMPH,Humidity,HourlyPrecipIn,Conditions,Clouds,dailyrainin,SoftwareType,DateUTC
2013-09-23 00:11:00,44.0,34.0,-100.00,SSE,167,1.0,4.0,68,0.00,,,-99.99,,2013-09-23 07:11:00,
2013-09-23 00:21:00,44.0,34.0,-100.00,SSE,167,1.0,4.0,68,0.00,,,-99.99,,2013-09-23 07:21:00,
2013-09-23 00:42:00,44.0,36.0,-100.00,ESE,109,4.0,5.0,72,0.00,,,-99.99,,2013-09-23 07:42:00,
2013-09-23 01:11:00,43.0,34.0,-100.00,ESE,104,2.0,5.0,70,0.00,,,-99.99,,2013-09-23 08:11:00,
2013-09-23 01:42:00,43.0,34.0,-100.00,ESE,109,3.0,5.0,71,0.00,,,-99.99,,2013-09-23 08:42:00,
2013-09-23 01:52:00,42.0,34.0,-100.00,East,97,2.0,5.0,72,0.00,,,-99.99,,2013-09-23 08:52:00,
2013-09-23 02:02:00,42.0,34.0,-100.00,East,97,2.0,5.0,72,0.00,,,-99.99,,2013-09-23 09:02:00,
2013-09-23 03:13:00,43.0,35.0,-100.00,ENE,66,4.0,7.0,72,0.00,,,-99.99,,2013-09-23 10:13:00,
2013-09-23 03:42:00,37.0,32.0,-100.00,ESE,121,2.0,4.0,81,0.00,,,-99.99,,2013-09-23 10:42:00,
2013-09-23 03:52:00,37.0,34.0,-100.00,SE,130,0.0,2.0,90,0.00,,,-99.99,,2013-09-23 10:52:00,
2013-09-23 04:02:00,37.0,34.0,-100.00,SE,130,0.0,2.0,90,0.00,,,-99.99,,2013-09-23 11:02:00,
2013-09-23 04:21:00,38.0,32.0,-100.00,East,86,2.0,4.0,78,0.00,,,-99.99,,2013-09-23 11:21:00,
2013-09-23 04:42:00,35.0,34.0,-100.00,SW,215,0.0,3.0,98,0.00,,,-99.99,,2013-09-23 11:42:00,
2013-09-23 05:22:00,37.0,32.0,-100.00,East,92,2.0,3.0,82,0.00,,,-99.99,,2013-09-23 12:22:00,
2013-09-23 05:42:00,34.0,29.0,-100.00,East,80,1.0,4.0,82,0.00,,,-99.99,,2013-09-23 12:42:00,
2013-09-23 05:52:00,35.0,32.0,-100.00,SSE,155,1.0,2.0,90,0.00,,,-99.99,,2013-09-23 12:52:00,
2013-09-23 06:11:00,34.0,29.0,-100.00,SSW,213,1.0,3.0,83,0.00,,,-99.99,,2013-09-23 13:11:00,
2013-09-23 07:11:00,35.0,33.0,-100.00,ENE,71,1.0,4.0,93,0.00,,,-99.99,,2013-09-23 14:11:00,
2013-09-23 07:21:00,36.0,32.0,-100.00,ENE,78,2.0,4.0,86,0.00,,,-99.99,,2013-09-23 14:21:00,
2013-09-23 07:32:00,36.0,32.0,-100.00,ENE,78,2.0,4.0,86,0.00,,,-99.99,,2013-09-23 14:32:00,
2013-09-23 07:42:00,36.0,32.0,-100.00,ENE,78,2.0,4.0,86,0.00,,,-99.99,,2013-09-23 14:42:00,
2013-09-23 07:52:00,36.0,29.0,-100.00,ESE,120,1.0,3.0,77,0.00,,,-99.99,,2013-09-23 14:52:00,
2013-09-23 08:02:00,36.0,29.0,-100.00,ESE,120,1.0,3.0,77,0.00,,,-99.99,,2013-09-23 15:02:00,
2013-09-23 08:11:00,36.0,29.0,-100.00,ESE,120,1.0,3.0,77,0.00,,,-99.99,,2013-09-23 15:11:00,
2013-09-23 08:21:00,37.0,33.0,-100.00,North,-999,-999.0,-999.0,83,0.00,,,-99.99,,2013-09-23 15:21:00,
2013-09-23 08:43:00,37.0,32.0,-100.00,SSW,196,0.0,1.0,83,0.00,,,-99.99,,2013-09-23 15:43:00,
2013-09-23 08:54:00,42.0,34.0,-100.00,ESE,110,1.0,4.0,72,0.00,,,-99.99,,2013-09-23 15:54:00,
2013-09-23 09:03:00,42.0,34.0,-100.00,ESE,110,1.0,4.0,72,0.00,,,-99.99,,2013-09-23 16:03:00,
2013-09-23 09:12:00,42.0,34.0,-100.00,ESE,110,1.0,4.0,72,0.00,,,-99.99,,2013-09-23 16:12:00,
2013-09-23 09:23:00,47.0,38.0,-100.00,North,-999,-999.0,-999.0,69,0.00,,,-99.99,,2013-09-23 16:23:00,
2013-09-23 09:43:00,48.0,37.0,-100.00,SSW,195,1.0,4.0,66,0.00,,,-99.99,,2013-09-23 16:43:00,
2013-09-23 10:12:00,52.0,37.0,-100.00,South,184,1.0,4.0,57,0.00,,,-99.99,,2013-09-23 17:12:00,
2013-09-23 10:24:00,53.0,37.0,-100.00,SSW,208,1.0,3.0,55,0.00,,,-99.99,,2013-09-23 17:24:00,
2013-09-23 10:34:00,53.0,37.0,-100.00,SSW,208,1.0,3.0,55,0.00,,,-99.99,,2013-09-23 17:34:00,
2013-09-23 10:42:00,53.0,37.0,-100.00,SSW,208,1.0,3.0,55,0.00,,,-99.99,,2013-09-23 17:42:00,
2013-09-23 10:52:00,59.0,37.0,-100.00,East,88,1.0,4.0,43,0.00,,,-99.99,,2013-09-23 17:52:00,
2013-09-23 11:02:00,59.0,37.0,-100.00,East,88,1.0,4.0,43,0.00,,,-99.99,,2013-09-23 18:02:00,
2013-09-23 11:21:00,60.0,38.0,-100.00,SSE,155,2.0,5.0,44,0.00,,,-99.99,,2013-09-23 18:21:00,
2013-09-23 11:42:00,62.0,37.0,-100.00,West,275,1.0,6.0,39,0.00,,,-99.99,,2013-09-23 18:42:00,
2013-09-23 12:12:00,65.0,39.0,-100.00,SW,217,1.0,6.0,38,0.00,,,-99.99,,2013-09-23 19:12:00,
2013-09-23 12:22:00,65.0,35.0,-100.00,ESE,103,3.0,7.0,33,0.00,,,-99.99,,2013-09-23 19:22:00,
2013-09-23 12:42:00,67.0,35.0,-100.00,ESE,120,2.0,6.0,31,0.00,,,-99.99,,2013-09-23 19:42:00,
2013-09-23 12:53:00,69.0,37.0,-100.00,ESE,106,1.0,5.0,31,0.00,,,-99.99,,2013-09-23 19:53:00,
2013-09-23 13:02:00,69.0,37.0,-100.00,ESE,106,1.0,5.0,31,0.00,,,-99.99,,2013-09-23 20:02:00,
2013-09-23 13:21:00,73.0,37.0,-100.00,SW,232,1.0,6.0,27,0.00,,,-99.99,,2013-09-23 20:21:00,
2013-09-23 13:42:00,72.0,36.0,-100.00,ESE,123,2.0,5.0,27,0.00,,,-99.99,,2013-09-23 20:42:00,
2013-09-23 13:52:00,72.0,35.0,-100.00,NW,320,2.0,7.0,26,0.00,,,-99.99,,2013-09-23 20:52:00,
2013-09-23 14:02:00,72.0,35.0,-100.00,NW,320,2.0,7.0,26,0.00,,,-99.99,,2013-09-23 21:02:00,
2013-09-23 14:22:00,72.0,34.0,-100.00,WNW,299,4.0,10.0,25,0.00,,,-99.99,,2013-09-23 21:22:00,
2013-09-23 14:34:00,72.0,34.0,-100.00,WNW,299,4.0,10.0,25,0.00,,,-99.99,,2013-09-23 21:34:00,
2013-09-23 14:54:00,76.0,23.0,-100.00,NW,311,2.0,6.0,14,0.00,,,-99.99,,2013-09-23 21:54:00,
2013-09-23 15:03:00,76.0,23.0,-100.00,NW,311,2.0,6.0,14,0.00,,,-99.99,,2013-09-23 22:03:00,
2013-09-23 15:23:00,78.0,35.0,-100.00,South,185,3.0,10.0,21,0.00,,,-99.99,,2013-09-23 22:23:00,
2013-09-23 15:33:00,78.0,35.0,-100.00,South,185,3.0,10.0,21,0.00,,,-99.99,,2013-09-23 22:33:00,
2013-09-23 16:12:00,78.0,25.0,-100.00,SW,226,5.0,9.0,14,0.00,,,-99.99,,2013-09-23 23:12:00,
2013-09-23 16:20:00,78.0,19.0,-100.00,WSW,241,17.0,25.0,11,0.00,,,-99.99,,2013-09-23 23:20:00,
2013-09-23 16:22:00,79.0,24.0,-100.00,WSW,240,6.0,13.0,13,0.00,,,-99.99,,2013-09-23 23:22:00,
2013-09-23 16:42:00,78.0,21.0,-100.00,SW,236,13.0,19.0,12,0.00,,,-99.99,,2013-09-23 23:42:00,
2013-09-23 16:54:00,78.0,19.0,-100.00,WSW,241,17.0,25.0,11,0.00,,,-99.99,,2013-09-23 23:54:00,
2013-09-23 17:01:00,78.0,19.0,-100.00,WSW,241,17.0,25.0,11,0.00,,,-99.99,,2013-09-24 00:01:00,
2013-09-23 17:11:00,78.0,19.0,-100.00,WSW,241,17.0,25.0,11,0.00,,,-99.99,,2013-09-24 00:11:00,
2013-09-23 17:42:00,77.0,22.0,-100.00,WSW,241,15.0,24.0,13,0.00,,,-99.99,,2013-09-24 00:42:00,
2013-09-23 17:52:00,77.0,22.0,-100.00,WSW,241,15.0,24.0,13,0.00,,,-99.99,,2013-09-24 00:52:00,
2013-09-23 18:12:00,74.0,29.0,-100.00,WSW,239,13.0,20.0,19,0.00,,,-99.99,,2013-09-24 01:12:00,
2013-09-23 18:21:00,74.0,29.0,-100.00,WSW,239,13.0,20.0,19,0.00,,,-99.99,,2013-09-24 01:21:00,
2013-09-23 18:43:00,71.0,30.0,-100.00,SW,230,14.0,21.0,22,0.00,,,-99.99,,2013-09-24 01:43:00,
2013-09-23 19:12:00,69.0,31.0,-100.00,SW,226,13.0,17.0,24,0.00,,,-99.99,,2013-09-24 02:12:00,
2013-09-23 19:22:00,69.0,31.0,-100.00,SW,232,12.0,18.0,24,0.00,,,-99.99,,2013-09-24 02:22:00,
2013-09-23 19:32:00,69.0,31.0,-100.00,SW,232,12.0,18.0,24,0.00,,,-99.99,,2013-09-24 02:32:00,
2013-09-23 19:52:00,69.0,29.0,-100.00,WSW,241,7.0,12.0,22,0.00,,,-99.99,,2013-09-24 02:52:00,
2013-09-23 20:02:00,69.0,29.0,-100.00,WSW,241,7.0,12.0,22,0.00,,,-99.99,,2013-09-24 03:02:00,
2013-09-23 20:22:00,70.0,23.0,-100.00,SW,232,11.0,23.0,17,0.00,,,-99.99,,2013-09-24 03:22:00,
2013-09-23 20:44:00,66.0,28.0,-100.00,West,277,4.0,9.0,24,0.00,,,-99.99,,2013-09-24 03:44:00,
2013-09-23 21:14:00,65.0,30.0,-100.00,ESE,116,3.0,8.0,27,0.00,,,-99.99,,2013-09-24 04:14:00,
2013-09-23 21:24:00,65.0,30.0,-100.00,ESE,116,3.0,8.0,27,0.00,,,-99.99,,2013-09-24 04:24:00,
2013-09-23 21:44:00,63.0,28.0,-100.00,SSW,210,5.0,12.0,26,0.00,,,-99.99,,2013-09-24 04:44:00,
2013-09-23 22:22:00,65.0,23.0,-100.00,South,181,4.0,7.0,20,0.00,,,-99.99,,2013-09-24 05:22:00,
2013-09-23 22:34:00,65.0,23.0,-100.00,South,181,4.0,7.0,20,0.00,,,-99.99,,2013-09-24 05:34:00,
2013-09-23 22:53:00,58.0,29.0,-100.00,East,86,7.0,10.0,33,0.00,,,-99.99,,2013-09-24 05:53:00,
2013-09-23 23:42:00,54.0,28.0,-100.00,NNW,330,2.0,3.0,37,0.00,,,-99.99,,2013-09-24 06:42:00,